createdAt,value
2018-10-09T00:00:01.414Z,6.00
2018-10-09T00:02:29.775Z,6.70
2018-10-09T00:04:58.097Z,5.47
2018-10-09T00:07:26.462Z,7.70
2018-10-09T00:09:54.783Z,6.28
2018-10-09T00:12:23.173Z,7.10
2018-10-09T00:14:51.598Z,8.53
2018-10-09T00:17:19.960Z,7.28
2018-10-09T00:19:48.327Z,6.95
2018-10-09T00:22:16.692Z,8.88
2018-10-09T00:24:45.017Z,8.35
2018-10-09T00:27:13.380Z,7.70
2018-10-09T00:29:41.713Z,6.83
2018-10-09T00:32:10.076Z,8.00
2018-10-09T00:34:38.452Z,8.10
2018-10-09T00:37:06.809Z,7.20
2018-10-09T00:39:35.140Z,4.35
2018-10-09T00:42:03.501Z,7.72
2018-10-09T00:44:31.844Z,9.35
2018-10-09T00:47:00.355Z,6.05
2018-10-09T00:49:28.703Z,8.00
2018-10-09T00:51:57.065Z,6.10
2018-10-09T00:54:25.415Z,8.25
2018-10-09T00:56:53.808Z,9.68
2018-10-09T00:59:22.140Z,8.95
2018-10-09T01:01:50.504Z,7.30
2018-10-09T01:04:18.831Z,7.05
2018-10-09T01:06:47.188Z,12.05
2018-10-09T01:09:15.595Z,9.48
2018-10-09T01:11:43.892Z,9.45
2018-10-09T01:14:12.252Z,6.90
2018-10-09T01:16:40.616Z,8.63
2018-10-09T01:19:08.956Z,8.68
2018-10-09T01:21:37.366Z,11.35
2018-10-09T01:24:05.725Z,7.33
2018-10-09T01:26:34.096Z,8.95
2018-10-09T01:29:02.440Z,13.90
2018-10-09T01:31:30.815Z,9.28
2018-10-09T01:33:59.153Z,10.03
2018-10-09T01:36:27.528Z,7.05
2018-10-09T01:38:55.888Z,8.83
2018-10-09T01:41:24.251Z,8.28
2018-10-09T01:43:52.614Z,10.43
2018-10-09T01:46:20.955Z,9.58
2018-10-09T01:48:49.331Z,12.07
2018-10-09T01:51:17.675Z,10.00
2018-10-09T01:53:46.076Z,9.43
2018-10-09T01:56:14.428Z,10.03
2018-10-09T01:58:42.791Z,7.58
2018-10-09T02:01:11.148Z,7.90
2018-10-09T02:03:39.531Z,10.05
2018-10-09T02:06:08.388Z,13.30
2018-10-09T02:08:36.759Z,8.40
2018-10-09T02:11:05.204Z,9.03
2018-10-09T02:13:33.596Z,7.25
2018-10-09T02:16:02.084Z,7.37
2018-10-09T02:18:30.460Z,7.60
2018-10-09T02:20:58.820Z,7.70
2018-10-09T02:23:27.203Z,7.33
2018-10-09T02:25:55.571Z,9.10
2018-10-09T02:28:23.939Z,9.73
2018-10-09T02:30:52.292Z,8.33
2018-10-09T02:33:20.728Z,9.28
2018-10-09T02:35:49.100Z,10.70
2018-10-09T02:38:17.495Z,8.58
2018-10-09T02:40:45.832Z,7.33
2018-10-09T02:43:14.212Z,11.57
2018-10-09T02:45:42.552Z,10.08
2018-10-09T02:48:10.925Z,11.57
2018-10-09T02:50:39.259Z,9.20
2018-10-09T02:53:07.649Z,10.63
2018-10-09T02:55:35.995Z,10.55
2018-10-09T02:58:04.368Z,9.78
2018-10-09T03:00:32.716Z,11.05
2018-10-09T03:03:01.112Z,8.50
2018-10-09T03:05:29.457Z,8.33
2018-10-09T03:07:57.832Z,8.43
2018-10-09T03:10:26.200Z,10.08
2018-10-09T03:12:54.568Z,7.50
2018-10-09T03:15:22.939Z,8.50
2018-10-09T03:17:51.320Z,7.58
2018-10-09T03:20:19.688Z,7.80
2018-10-09T03:22:48.069Z,10.80
2018-10-09T03:25:16.408Z,7.60
2018-10-09T03:27:44.832Z,12.63
2018-10-09T03:30:13.293Z,9.08
2018-10-09T03:32:41.676Z,7.37
2018-10-09T03:35:10.012Z,7.33
2018-10-09T03:37:38.396Z,8.85
2018-10-09T03:40:06.840Z,5.05
2018-10-09T03:42:35.220Z,6.62
2018-10-09T03:45:03.715Z,8.38
2018-10-09T03:47:32.060Z,7.50
2018-10-09T03:50:00.444Z,8.90
2018-10-09T03:52:28.776Z,10.75
2018-10-09T03:54:57.167Z,7.58
2018-10-09T03:57:25.496Z,8.90
2018-10-09T03:59:53.923Z,8.93
2018-10-09T04:02:22.272Z,7.17
2018-10-09T04:04:50.652Z,8.40
2018-10-09T04:07:19.003Z,7.40
2018-10-09T04:09:47.388Z,7.05
2018-10-09T04:12:15.772Z,7.67
2018-10-09T04:14:44.185Z,8.58
2018-10-09T04:17:12.536Z,7.17
2018-10-09T04:19:40.935Z,6.47
2018-10-09T04:22:13.616Z,9.85
2018-10-09T04:24:41.995Z,7.70
2018-10-09T04:27:10.345Z,7.75
2018-10-09T04:29:38.740Z,6.83
2018-10-09T04:32:07.133Z,7.08
2018-10-09T04:34:35.511Z,6.72
2018-10-09T04:37:03.856Z,8.00
2018-10-09T04:39:32.225Z,9.23
2018-10-09T04:42:00.572Z,10.43
2018-10-09T04:44:28.948Z,9.08
2018-10-09T04:46:57.308Z,8.88
2018-10-09T04:49:25.689Z,7.78
2018-10-09T04:51:54.033Z,7.12
2018-10-09T04:54:22.421Z,9.65
2018-10-09T04:56:50.788Z,11.28
2018-10-09T04:59:19.160Z,7.05
2018-10-09T05:01:47.517Z,7.00
2018-10-09T05:04:15.927Z,8.88
2018-10-09T05:06:44.268Z,9.58
2018-10-09T05:09:12.960Z,9.93
2018-10-09T05:11:41.357Z,8.35
2018-10-09T05:14:09.777Z,9.35
2018-10-09T05:16:38.121Z,8.93
2018-10-09T05:19:06.536Z,8.03
2018-10-09T05:21:35.252Z,9.93
2018-10-09T05:24:10.082Z,11.57
2018-10-09T05:26:38.619Z,11.80
2018-10-09T05:29:07.012Z,11.00
2018-10-09T05:31:35.415Z,9.18
2018-10-09T05:34:03.803Z,10.40
2018-10-09T05:36:32.148Z,9.28
2018-10-09T05:39:00.784Z,7.92
2018-10-09T05:41:29.173Z,12.07
2018-10-09T05:43:57.548Z,10.20
2018-10-09T05:46:25.923Z,9.18
2018-10-09T05:48:54.296Z,10.03
2018-10-09T05:51:22.701Z,10.65
2018-10-09T05:53:51.051Z,11.25
2018-10-09T05:56:19.430Z,11.60
2018-10-09T05:58:47.784Z,8.60
2018-10-09T06:01:16.169Z,9.68
2018-10-09T06:03:44.516Z,7.37
2018-10-09T06:06:12.894Z,11.08
2018-10-09T06:08:41.250Z,10.13
2018-10-09T06:11:09.629Z,8.60
2018-10-09T06:13:37.980Z,13.72
2018-10-09T06:16:06.555Z,12.68
2018-10-09T06:18:34.833Z,14.53
2018-10-09T06:21:03.224Z,10.32
2018-10-09T06:23:31.572Z,10.63
2018-10-09T06:25:59.972Z,15.35
2018-10-09T06:28:28.385Z,13.98
2018-10-09T06:30:56.743Z,16.30
2018-10-09T06:33:25.120Z,14.15
2018-10-09T06:35:53.508Z,14.35
2018-10-09T06:38:21.860Z,16.23
2018-10-09T06:40:50.253Z,11.18
2018-10-09T06:43:18.704Z,13.55
2018-10-09T06:45:47.088Z,13.48
2018-10-09T06:48:15.435Z,10.98
2018-10-09T06:50:43.828Z,13.80
2018-10-09T06:53:12.179Z,13.28
2018-10-09T06:55:40.556Z,15.15
2018-10-09T06:58:08.912Z,12.80
2018-10-09T07:00:37.340Z,14.83
2018-10-09T07:03:05.801Z,14.45
2018-10-09T07:05:34.216Z,16.42
2018-10-09T07:08:02.591Z,13.08
2018-10-09T07:10:30.976Z,15.45
2018-10-09T07:12:59.405Z,13.13
2018-10-09T07:15:27.828Z,12.13
2018-10-09T07:17:56.164Z,16.75
2018-10-09T07:20:24.548Z,14.63
2018-10-09T07:22:53.105Z,14.98
2018-10-09T07:25:21.488Z,16.50
2018-10-09T07:27:49.887Z,10.58
2018-10-09T07:30:18.244Z,15.05
2018-10-09T07:32:46.601Z,19.10
2018-10-09T07:35:14.990Z,16.10
2018-10-09T07:37:43.485Z,11.93
2018-10-09T07:40:11.736Z,15.45
2018-10-09T07:42:40.180Z,13.85
2018-10-09T07:45:08.600Z,13.62
2018-10-09T07:47:36.960Z,15.75
2018-10-09T07:50:05.772Z,15.38
2018-10-09T07:52:40.721Z,13.50
2018-10-09T07:55:09.124Z,17.73
2018-10-09T07:57:37.477Z,17.55
2018-10-09T08:00:05.848Z,18.55
2018-10-09T08:02:34.236Z,15.65
2018-10-09T08:05:02.671Z,15.10
2018-10-09T08:07:31.052Z,12.90
2018-10-09T08:09:59.408Z,16.70
2018-10-09T08:12:27.825Z,19.15
2018-10-09T08:14:56.228Z,15.80
2018-10-09T08:17:24.616Z,15.25
2018-10-09T08:19:52.951Z,13.10
2018-10-09T08:22:21.404Z,17.45
2018-10-09T08:24:49.707Z,17.40
2018-10-09T08:27:18.092Z,18.95
2018-10-09T08:29:46.441Z,16.52
2018-10-09T08:32:14.879Z,17.23
2018-10-09T08:34:43.212Z,17.15
2018-10-09T08:37:11.607Z,20.15
2018-10-09T08:39:39.956Z,18.30
2018-10-09T08:42:08.340Z,14.87
2018-10-09T08:44:36.709Z,15.75
2018-10-09T08:47:05.169Z,19.32
2018-10-09T08:49:33.515Z,17.52
2018-10-09T08:52:02.011Z,16.82
2018-10-09T08:54:30.328Z,15.40
2018-10-09T08:56:58.728Z,16.12
2018-10-09T08:59:27.090Z,14.15
2018-10-09T09:01:55.475Z,17.07
2018-10-09T09:04:23.856Z,17.20
2018-10-09T09:06:52.252Z,17.70
2018-10-09T09:09:20.617Z,16.37
2018-10-09T09:11:49.007Z,16.07
2018-10-09T09:14:17.408Z,17.20
2018-10-09T09:16:45.804Z,15.08
2018-10-09T09:19:14.190Z,18.00
2018-10-09T09:21:42.592Z,16.95
2018-10-09T09:24:10.987Z,17.32
2018-10-09T09:26:39.394Z,17.00
2018-10-09T09:29:07.728Z,14.80
2018-10-09T09:31:36.153Z,14.68
2018-10-09T09:34:04.513Z,15.28
2018-10-09T09:36:32.904Z,16.10
2018-10-09T09:39:01.355Z,15.48
2018-10-09T09:41:29.704Z,15.13
2018-10-09T09:43:58.064Z,13.53
2018-10-09T09:46:26.444Z,16.57
2018-10-09T09:49:01.230Z,12.73
2018-10-09T09:51:29.614Z,16.25
2018-10-09T09:53:57.963Z,13.62
2018-10-09T09:56:26.321Z,17.52
2018-10-09T09:58:54.891Z,14.47
2018-10-09T10:01:28.376Z,12.47
2018-10-09T10:03:56.761Z,16.52
2018-10-09T10:06:25.128Z,12.68
2018-10-09T10:08:53.508Z,15.05
2018-10-09T10:11:21.881Z,11.95
2018-10-09T10:13:50.319Z,15.15
2018-10-09T10:16:18.677Z,12.88
2018-10-09T10:18:47.059Z,11.33
2018-10-09T10:21:15.439Z,15.20
2018-10-09T10:23:43.893Z,13.88
2018-10-09T10:26:12.289Z,12.90
2018-10-09T10:28:40.676Z,14.13
2018-10-09T10:31:09.030Z,14.05
2018-10-09T10:33:37.416Z,13.05
2018-10-09T10:36:05.786Z,16.30
2018-10-09T10:38:34.380Z,13.65
2018-10-09T10:41:02.744Z,13.53
2018-10-09T10:43:31.140Z,14.25
2018-10-09T10:46:00.366Z,9.43
2018-10-09T10:48:28.753Z,9.95
2018-10-09T10:50:57.100Z,9.05
2018-10-09T10:53:25.494Z,10.75
2018-10-09T10:55:53.957Z,9.25
2018-10-09T10:58:22.342Z,9.58
2018-10-09T11:00:50.692Z,9.93
2018-10-09T11:03:19.072Z,9.23
2018-10-09T11:05:47.425Z,8.30
2018-10-09T11:08:15.859Z,7.67
2018-10-09T11:10:44.212Z,10.75
2018-10-09T11:13:12.620Z,8.10
2018-10-09T11:15:41.000Z,11.18
2018-10-09T11:18:09.420Z,9.18
2018-10-09T11:20:37.788Z,10.63
2018-10-09T11:23:06.456Z,9.88
2018-10-09T11:25:34.809Z,8.65
2018-10-09T11:28:03.215Z,7.85
2018-10-09T11:30:31.564Z,9.40
2018-10-09T11:32:59.957Z,9.35
2018-10-09T11:35:28.324Z,9.83
2018-10-09T11:37:56.720Z,8.68
2018-10-09T11:40:25.073Z,9.40
2018-10-09T11:42:53.573Z,8.53
2018-10-09T11:45:21.838Z,9.80
2018-10-09T11:47:50.244Z,12.90
2018-10-09T11:50:18.607Z,8.60
2018-10-09T11:52:47.008Z,8.95
2018-10-09T11:55:15.356Z,8.83
2018-10-09T11:57:43.744Z,7.35
2018-10-09T12:00:12.216Z,9.65
2018-10-09T12:02:40.591Z,7.85
2018-10-09T12:05:09.013Z,9.88
2018-10-09T12:07:37.380Z,8.20
2018-10-09T12:10:05.836Z,7.97
2018-10-09T12:12:34.200Z,8.43
2018-10-09T12:15:02.621Z,8.40
2018-10-09T12:17:31.164Z,8.18
2018-10-09T12:19:59.548Z,8.58
2018-10-09T12:22:27.903Z,8.20
2018-10-09T12:24:56.330Z,8.58
2018-10-09T12:27:24.684Z,6.87
2018-10-09T12:29:53.077Z,6.95
2018-10-09T12:32:21.488Z,9.43
2018-10-09T12:34:49.849Z,8.33
2018-10-09T12:37:18.155Z,8.10
2018-10-09T12:39:46.500Z,9.10
2018-10-09T12:42:14.831Z,8.43
2018-10-09T12:44:43.181Z,8.15
2018-10-09T12:47:11.521Z,7.25
2018-10-09T12:49:39.884Z,8.83
2018-10-09T12:52:08.205Z,8.28
2018-10-09T12:54:36.552Z,9.50
2018-10-09T12:57:04.958Z,9.90
2018-10-09T12:59:33.264Z,6.90
2018-10-09T13:02:01.585Z,7.83
2018-10-09T13:04:29.966Z,8.58
2018-10-09T13:06:58.316Z,7.58
2018-10-09T13:09:26.713Z,9.13
2018-10-09T13:11:55.029Z,7.72
2018-10-09T13:14:23.419Z,6.70
2018-10-09T13:16:51.732Z,7.58
2018-10-09T13:19:20.080Z,8.55
2018-10-09T13:21:48.837Z,7.05
2018-10-09T13:24:16.773Z,6.60
2018-10-09T13:26:45.112Z,6.78
2018-10-09T13:29:13.460Z,9.03
2018-10-09T13:31:41.805Z,6.97
2018-10-09T13:34:10.215Z,9.10
2018-10-09T13:36:38.506Z,10.03
2018-10-09T13:39:07.663Z,8.25
2018-10-09T13:41:35.988Z,7.28
2018-10-09T13:44:04.437Z,6.05
2018-10-09T13:46:32.705Z,7.65
2018-10-09T13:49:01.061Z,7.20
2018-10-09T13:51:29.389Z,5.20
2018-10-09T13:53:57.716Z,6.95
2018-10-09T13:56:26.077Z,6.78
2018-10-09T13:58:54.413Z,7.65
2018-10-09T14:01:22.764Z,6.60
2018-10-09T14:03:51.086Z,6.10
2018-10-09T14:06:19.507Z,7.45
2018-10-09T14:08:47.845Z,6.80
2018-10-09T14:11:16.197Z,7.83
2018-10-09T14:13:44.537Z,6.50
2018-10-09T14:16:12.982Z,7.55
2018-10-09T14:18:41.284Z,8.43
2018-10-09T14:21:09.645Z,7.00
2018-10-09T14:23:37.978Z,7.33
2018-10-09T14:26:06.590Z,6.47
2018-10-09T14:28:34.922Z,6.90
2018-10-09T14:31:03.276Z,4.90
2018-10-09T14:33:31.602Z,8.55
2018-10-09T14:35:59.952Z,5.75
2018-10-09T14:38:28.268Z,6.28
2018-10-09T14:40:56.632Z,6.95
2018-10-09T14:43:24.957Z,8.05
2018-10-09T14:45:53.296Z,5.00
2018-10-09T14:48:21.728Z,8.15
2018-10-09T14:50:50.141Z,8.45
2018-10-09T14:53:18.469Z,7.50
2018-10-09T14:55:46.820Z,7.28
2018-10-09T14:58:15.143Z,6.95
2018-10-09T15:00:43.573Z,5.37
2018-10-09T15:03:11.911Z,6.92
2018-10-09T15:05:40.266Z,6.00
2018-10-09T15:08:08.580Z,6.05
2018-10-09T15:10:36.930Z,6.03
2018-10-09T15:13:05.274Z,7.15
2018-10-09T15:15:33.673Z,7.58
2018-10-09T15:18:01.996Z,6.78
2018-10-09T15:20:30.358Z,6.50
2018-10-09T15:22:58.708Z,7.05
2018-10-09T15:25:27.068Z,6.65
2018-10-09T15:27:58.385Z,5.35
2018-10-09T15:30:26.774Z,6.20
2018-10-09T15:32:55.119Z,5.17
2018-10-09T15:35:23.553Z,5.85
2018-10-09T15:37:52.135Z,5.72
2018-10-09T15:40:20.492Z,6.80
2018-10-09T15:42:48.806Z,7.35
2018-10-09T15:45:17.158Z,6.15
2018-10-09T15:47:45.482Z,4.00
2018-10-09T15:50:13.889Z,6.55
2018-10-09T15:52:42.313Z,5.08
2018-10-09T15:55:10.589Z,5.05
2018-10-09T15:57:38.972Z,5.60
2018-10-09T16:00:07.357Z,4.92
2018-10-09T16:02:35.717Z,5.28
2018-10-09T16:05:04.065Z,4.87
2018-10-09T16:07:32.417Z,4.10
2018-10-09T16:10:00.743Z,4.67
2018-10-09T16:12:29.126Z,4.22
2018-10-09T16:14:57.436Z,3.77
2018-10-09T16:17:25.789Z,4.62
2018-10-09T16:19:54.115Z,4.08
2018-10-09T16:22:22.518Z,5.55
2018-10-09T16:24:50.895Z,4.12
2018-10-09T16:27:20.388Z,4.92
2018-10-09T16:29:48.709Z,5.72
2018-10-09T16:32:17.080Z,4.35
2018-10-09T16:34:45.388Z,6.12
2018-10-09T16:37:13.838Z,6.10
2018-10-09T16:39:42.156Z,5.58
2018-10-09T16:42:10.533Z,5.58
2018-10-09T16:44:38.856Z,6.67
2018-10-09T16:47:07.501Z,6.60
2018-10-09T16:49:37.588Z,6.85
2018-10-09T16:52:06.093Z,9.18
2018-10-09T16:54:34.450Z,6.15
2018-10-09T16:57:02.824Z,8.13
2018-10-09T16:59:31.140Z,7.37
2018-10-09T17:02:06.468Z,6.62
2018-10-09T17:04:34.832Z,6.10
2018-10-09T17:07:03.180Z,5.47
2018-10-09T17:09:31.484Z,8.30
2018-10-09T17:11:59.832Z,7.10
2018-10-09T17:14:28.153Z,6.50
2018-10-09T17:16:56.493Z,7.37
2018-10-09T17:19:24.808Z,8.98
2018-10-09T17:21:53.175Z,5.80
2018-10-09T17:24:21.536Z,7.10
2018-10-09T17:26:49.961Z,6.42
2018-10-09T17:29:18.236Z,8.58
2018-10-09T17:31:46.622Z,7.97
2018-10-09T17:34:14.945Z,7.67
2018-10-09T17:36:43.331Z,7.85
2018-10-09T17:39:12.489Z,8.73
2018-10-09T17:41:41.020Z,7.92
2018-10-09T17:44:09.353Z,8.53
2018-10-09T17:46:38.376Z,9.33
2018-10-09T17:49:06.696Z,8.40
2018-10-09T17:51:35.101Z,8.55
2018-10-09T17:54:03.428Z,9.35
2018-10-09T17:56:31.736Z,9.10
2018-10-09T17:59:00.084Z,11.85
2018-10-09T18:01:28.404Z,12.93
2018-10-09T18:03:56.763Z,7.87
2018-10-09T18:06:25.148Z,10.03
2018-10-09T18:08:53.577Z,9.63
2018-10-09T18:11:21.853Z,9.28
2018-10-09T18:13:50.218Z,9.60
2018-10-09T18:16:18.581Z,9.60
2018-10-09T18:18:46.938Z,10.70
2018-10-09T18:21:15.268Z,12.43
2018-10-09T18:23:43.641Z,10.38
2018-10-09T18:26:11.961Z,9.45
2018-10-09T18:28:40.337Z,11.28
2018-10-09T18:31:08.699Z,7.47
2018-10-09T18:33:37.070Z,10.65
2018-10-09T18:36:05.427Z,9.38
2018-10-09T18:38:33.806Z,9.28
2018-10-09T18:41:02.223Z,11.57
2018-10-09T18:43:30.513Z,11.93
2018-10-09T18:45:58.830Z,8.80
2018-10-09T18:48:27.211Z,9.78
2018-10-09T18:50:55.643Z,10.78
2018-10-09T18:53:23.988Z,8.80
2018-10-09T18:55:52.312Z,9.15
2018-10-09T18:58:20.676Z,9.38
2018-10-09T19:00:49.000Z,9.18
2018-10-09T19:03:17.339Z,9.55
2018-10-09T19:05:45.664Z,11.73
2018-10-09T19:08:14.033Z,10.80
2018-10-09T19:10:42.380Z,9.80
2018-10-09T19:13:10.728Z,12.43
2018-10-09T19:15:39.133Z,12.85
2018-10-09T19:18:07.452Z,9.98
2018-10-09T19:20:35.764Z,9.38
2018-10-09T19:23:04.125Z,10.75
2018-10-09T19:25:32.436Z,11.78
2018-10-09T19:28:00.788Z,10.63
2018-10-09T19:30:29.112Z,11.28
2018-10-09T19:32:57.592Z,11.70
2018-10-09T19:35:25.923Z,10.03
2018-10-09T19:37:54.288Z,11.03
2018-10-09T19:40:22.824Z,8.55
2018-10-09T19:42:51.244Z,10.55
2018-10-09T19:45:19.607Z,11.05
2018-10-09T19:47:47.964Z,11.18
2018-10-09T19:50:16.306Z,10.48
2018-10-09T19:52:44.675Z,11.90
2018-10-09T19:55:13.106Z,8.70
2018-10-09T19:57:41.421Z,9.33
2018-10-09T20:00:09.803Z,10.85
2018-10-09T20:02:38.197Z,9.33
2018-10-09T20:05:06.580Z,10.10
2018-10-09T20:07:35.097Z,11.70
2018-10-09T20:10:03.449Z,11.12
2018-10-09T20:12:31.755Z,8.90
2018-10-09T20:15:00.176Z,12.53
2018-10-09T20:17:28.543Z,9.98
2018-10-09T20:19:57.122Z,10.95
2018-10-09T20:22:25.516Z,12.13
2018-10-09T20:24:53.897Z,11.85
2018-10-09T20:27:22.233Z,9.60
2018-10-09T20:29:50.605Z,9.93
2018-10-09T20:32:18.920Z,11.43
2018-10-09T20:34:47.400Z,10.30
2018-10-09T20:37:15.716Z,11.95
2018-10-09T20:39:44.069Z,10.35
2018-10-09T20:42:12.395Z,9.80
2018-10-09T20:44:40.772Z,10.50
2018-10-09T20:47:09.132Z,12.75
2018-10-09T20:49:37.472Z,9.23
2018-10-09T20:52:05.796Z,10.43
2018-10-09T20:54:34.153Z,15.03
2018-10-09T20:57:02.499Z,11.12
2018-10-09T20:59:30.932Z,12.25
2018-10-09T21:01:59.257Z,12.78
2018-10-09T21:04:27.632Z,10.70
2018-10-09T21:06:55.979Z,9.48
2018-10-09T21:09:24.324Z,11.08
2018-10-09T21:11:52.693Z,7.37
2018-10-09T21:14:21.012Z,10.00
2018-10-09T21:16:49.369Z,11.35
2018-10-09T21:19:17.692Z,8.15
2018-10-09T21:21:46.049Z,9.80
2018-10-09T21:24:14.404Z,10.38
2018-10-09T21:26:42.740Z,10.88
2018-10-09T21:29:11.045Z,9.73
2018-10-09T21:31:39.388Z,11.03
2018-10-09T21:34:07.764Z,11.20
2018-10-09T21:36:36.118Z,9.50
2018-10-09T21:39:05.868Z,10.08
2018-10-09T21:41:34.196Z,9.63
2018-10-09T21:44:02.541Z,10.20
2018-10-09T21:46:30.892Z,8.90
2018-10-09T21:48:59.207Z,9.80
2018-10-09T21:51:27.565Z,9.48
2018-10-09T21:53:55.876Z,10.03
2018-10-09T21:56:24.241Z,10.63
2018-10-09T21:58:52.556Z,9.93
2018-10-09T22:01:20.905Z,8.55
2018-10-09T22:03:49.220Z,11.00
2018-10-09T22:06:17.563Z,12.10
2018-10-09T22:08:45.884Z,10.78
2018-10-09T22:11:14.232Z,7.95
2018-10-09T22:13:42.556Z,11.33
2018-10-09T22:16:11.281Z,8.90
2018-10-09T22:18:39.653Z,10.20
2018-10-09T22:21:07.971Z,12.82
2018-10-09T22:23:36.328Z,15.48
2018-10-09T22:26:04.692Z,11.95
2018-10-09T22:28:33.059Z,12.30
2018-10-09T22:31:01.400Z,10.45
2018-10-09T22:33:29.767Z,8.65
2018-10-09T22:35:58.096Z,8.90
2018-10-09T22:38:26.482Z,9.73
2018-10-09T22:40:54.796Z,11.73
2018-10-09T22:43:23.193Z,10.68
2018-10-09T22:45:51.524Z,9.78
2018-10-09T22:48:19.839Z,9.60
2018-10-09T22:50:48.191Z,9.13
2018-10-09T22:53:16.508Z,9.75
2018-10-09T22:55:44.865Z,6.90
2018-10-09T22:58:13.188Z,12.28
2018-10-09T23:00:41.560Z,11.97
2018-10-09T23:03:09.876Z,9.13
2018-10-09T23:05:38.188Z,9.50
2018-10-09T23:08:06.827Z,11.53
2018-10-09T23:10:35.200Z,8.70
2018-10-09T23:13:03.507Z,8.78
2018-10-09T23:15:31.861Z,8.03
2018-10-09T23:18:00.201Z,10.80
2018-10-09T23:20:28.560Z,9.03
2018-10-09T23:22:56.872Z,10.32
2018-10-09T23:25:25.208Z,8.78
2018-10-09T23:27:53.577Z,9.00
2018-10-09T23:30:21.937Z,10.65
2018-10-09T23:32:50.250Z,11.25
2018-10-09T23:35:18.592Z,9.80
2018-10-09T23:37:46.945Z,11.40
2018-10-09T23:40:15.264Z,9.15
2018-10-09T23:42:43.649Z,9.18
2018-10-09T23:45:11.944Z,8.25
2018-10-09T23:47:40.313Z,10.53
2018-10-09T23:50:08.618Z,11.05
2018-10-09T23:52:36.944Z,10.55
2018-10-09T23:55:06.185Z,8.88
2018-10-09T23:57:34.575Z,12.33
